sensor_id;sensor_type;location;lat;lon;timestamp;temperature;humidity
17146;DHT22;8688;54.444;18.444;2023-05-10T00:00:47;9.00;99.70
17146;DHT22;8688;54.444;18.444;2023-05-10T00:03:16;9.00;99.60
17146;DHT22;8688;54.444;18.444;2023-05-10T00:05:44;9.00;99.80
17146;DHT22;8688;54.444;18.444;2023-05-10T00:08:11;9.00;99.60
17146;DHT22;8688;54.444;18.444;2023-05-10T00:10:39;9.00;99.60
17146;DHT22;8688;54.444;18.444;2023-05-10T00:13:07;9.00;99.90
17146;DHT22;8688;54.444;18.444;2023-05-10T00:15:34;9.00;99.90
17146;DHT22;8688;54.444;18.444;2023-05-10T00:18:04;9.00;99.80
17146;DHT22;8688;54.444;18.444;2023-05-10T00:20:33;8.90;99.90
17146;DHT22;8688;54.444;18.444;2023-05-10T00:23:01;8.90;99.90
17146;DHT22;8688;54.444;18.444;2023-05-10T00:25:28;8.90;99.90
17146;DHT22;8688;54.444;18.444;2023-05-10T00:27:56;8.80;99.90
17146;DHT22;8688;54.444;18.444;2023-05-10T00:30:24;8.80;99.90
17146;DHT22;8688;54.444;18.444;2023-05-10T00:32:51;8.80;99.90
17146;DHT22;8688;54.444;18.444;2023-05-10T00:35:19;8.80;99.90
17146;DHT22;8688;54.444;18.444;2023-05-10T00:37:48;8.80;99.90
17146;DHT22;8688;54.444;18.444;2023-05-10T00:40:19;8.80;99.90
17146;DHT22;8688;54.444;18.444;2023-05-10T00:42:46;8.80;99.90
17146;DHT22;8688;54.444;18.444;2023-05-10T00:45:14;8.70;99.90
17146;DHT22;8688;54.444;18.444;2023-05-10T00:47:41;8.70;99.90
17146;DHT22;8688;54.444;18.444;2023-05-10T00:50:09;8.70;99.90
17146;DHT22;8688;54.444;18.444;2023-05-10T00:52:37;8.70;99.90
17146;DHT22;8688;54.444;18.444;2023-05-10T00:55:07;8.70;99.90
17146;DHT22;8688;54.444;18.444;2023-05-10T00:57:36;8.60;99.90
17146;DHT22;8688;54.444;18.444;2023-05-10T01:00:05;8.60;99.90
17146;DHT22;8688;54.444;18.444;2023-05-10T01:02:33;8.60;99.90
17146;DHT22;8688;54.444;18.444;2023-05-10T01:05:02;8.60;99.90
17146;DHT22;8688;54.444;18.444;2023-05-10T01:07:31;8.60;99.90
17146;DHT22;8688;54.444;18.444;2023-05-10T01:09:58;8.50;99.90
17146;DHT22;8688;54.444;18.444;2023-05-10T01:12:27;8.50;99.90
17146;DHT22;8688;54.444;18.444;2023-05-10T01:14:55;8.50;99.90
17146;DHT22;8688;54.444;18.444;2023-05-10T01:17:23;8.50;99.90
17146;DHT22;8688;54.444;18.444;2023-05-10T01:19:51;8.50;99.90
17146;DHT22;8688;54.444;18.444;2023-05-10T01:22:47;8.50;99.90
17146;DHT22;8688;54.444;18.444;2023-05-10T01:25:32;8.40;99.90
17146;DHT22;8688;54.444;18.444;2023-05-10T01:28:29;8.40;99.90
17146;DHT22;8688;54.444;18.444;2023-05-10T01:31:22;8.40;99.90
17146;DHT22;8688;54.444;18.444;2023-05-10T01:34:00;8.40;99.90
17146;DHT22;8688;54.444;18.444;2023-05-10T01:36:31;8.30;99.90
17146;DHT22;8688;54.444;18.444;2023-05-10T01:39:03;8.30;99.90
17146;DHT22;8688;54.444;18.444;2023-05-10T01:41:39;8.20;99.90
17146;DHT22;8688;54.444;18.444;2023-05-10T01:44:14;8.20;99.90
17146;DHT22;8688;54.444;18.444;2023-05-10T01:46:50;8.20;99.90
17146;DHT22;8688;54.444;18.444;2023-05-10T01:49:25;8.20;99.90
17146;DHT22;8688;54.444;18.444;2023-05-10T01:51:55;8.20;99.90
17146;DHT22;8688;54.444;18.444;2023-05-10T01:54:24;8.10;99.90
17146;DHT22;8688;54.444;18.444;2023-05-10T01:56:55;8.10;99.90
17146;DHT22;8688;54.444;18.444;2023-05-10T01:59:29;8.10;99.90
17146;DHT22;8688;54.444;18.444;2023-05-10T02:01:59;8.10;99.90
17146;DHT22;8688;54.444;18.444;2023-05-10T02:04:29;8.10;99.90
17146;DHT22;8688;54.444;18.444;2023-05-10T02:06:57;8.10;99.90
17146;DHT22;8688;54.444;18.444;2023-05-10T02:09:25;8.00;99.90
17146;DHT22;8688;54.444;18.444;2023-05-10T02:11:55;8.00;99.90
17146;DHT22;8688;54.444;18.444;2023-05-10T02:14:22;8.00;99.90
17146;DHT22;8688;54.444;18.444;2023-05-10T02:16:51;7.90;99.90
17146;DHT22;8688;54.444;18.444;2023-05-10T02:19:22;7.90;99.90
17146;DHT22;8688;54.444;18.444;2023-05-10T02:21:52;7.80;99.90
17146;DHT22;8688;54.444;18.444;2023-05-10T02:24:22;7.80;99.90
17146;DHT22;8688;54.444;18.444;2023-05-10T02:26:51;7.70;99.90
17146;DHT22;8688;54.444;18.444;2023-05-10T02:29:22;7.70;99.90
17146;DHT22;8688;54.444;18.444;2023-05-10T02:31:52;7.60;99.90
17146;DHT22;8688;54.444;18.444;2023-05-10T02:34:21;7.60;99.90
17146;DHT22;8688;54.444;18.444;2023-05-10T02:36:51;7.50;99.90
17146;DHT22;8688;54.444;18.444;2023-05-10T02:39:19;7.40;99.90
17146;DHT22;8688;54.444;18.444;2023-05-10T02:41:49;7.40;99.90
17146;DHT22;8688;54.444;18.444;2023-05-10T02:44:19;7.40;99.90
17146;DHT22;8688;54.444;18.444;2023-05-10T02:46:47;7.40;99.90
17146;DHT22;8688;54.444;18.444;2023-05-10T02:49:15;7.40;99.90
17146;DHT22;8688;54.444;18.444;2023-05-10T02:51:53;7.40;99.90
17146;DHT22;8688;54.444;18.444;2023-05-10T02:54:30;7.40;99.90
17146;DHT22;8688;54.444;18.444;2023-05-10T02:57:00;7.30;99.90
17146;DHT22;8688;54.444;18.444;2023-05-10T02:59:31;7.30;99.90
17146;DHT22;8688;54.444;18.444;2023-05-10T03:01:59;7.30;99.90
17146;DHT22;8688;54.444;18.444;2023-05-10T03:04:27;7.30;99.90
17146;DHT22;8688;54.444;18.444;2023-05-10T03:06:56;7.40;99.90
17146;DHT22;8688;54.444;18.444;2023-05-10T03:09:25;7.30;99.90
17146;DHT22;8688;54.444;18.444;2023-05-10T03:12:00;7.40;99.90
17146;DHT22;8688;54.444;18.444;2023-05-10T03:14:39;7.30;99.90
17146;DHT22;8688;54.444;18.444;2023-05-10T03:17:14;7.40;99.90
17146;DHT22;8688;54.444;18.444;2023-05-10T03:19:47;7.30;99.90
17146;DHT22;8688;54.444;18.444;2023-05-10T03:22:23;7.30;99.90
17146;DHT22;8688;54.444;18.444;2023-05-10T03:24:55;7.30;99.90
17146;DHT22;8688;54.444;18.444;2023-05-10T03:27:26;7.30;99.90
17146;DHT22;8688;54.444;18.444;2023-05-10T03:29:55;7.30;99.90
17146;DHT22;8688;54.444;18.444;2023-05-10T03:32:23;7.30;99.90
17146;DHT22;8688;54.444;18.444;2023-05-10T03:34:50;7.30;99.90
17146;DHT22;8688;54.444;18.444;2023-05-10T03:37:18;7.30;99.90
17146;DHT22;8688;54.444;18.444;2023-05-10T03:39:45;7.30;99.90
17146;DHT22;8688;54.444;18.444;2023-05-10T03:42:15;7.30;99.90
17146;DHT22;8688;54.444;18.444;2023-05-10T03:44:44;7.40;99.90
17146;DHT22;8688;54.444;18.444;2023-05-10T03:47:12;7.30;99.90
17146;DHT22;8688;54.444;18.444;2023-05-10T03:49:39;7.40;99.90
17146;DHT22;8688;54.444;18.444;2023-05-10T03:52:09;7.40;99.90
17146;DHT22;8688;54.444;18.444;2023-05-10T03:54:40;7.40;99.90
17146;DHT22;8688;54.444;18.444;2023-05-10T03:57:09;7.50;99.90
17146;DHT22;8688;54.444;18.444;2023-05-10T03:59:38;7.50;99.90
17146;DHT22;8688;54.444;18.444;2023-05-10T04:02:06;7.50;99.90
17146;DHT22;8688;54.444;18.444;2023-05-10T04:04:33;7.60;99.90
17146;DHT22;8688;54.444;18.444;2023-05-10T04:07:00;7.60;99.90
17146;DHT22;8688;54.444;18.444;2023-05-10T04:09:28;7.70;99.90
17146;DHT22;8688;54.444;18.444;2023-05-10T04:11:55;7.80;99.90
17146;DHT22;8688;54.444;18.444;2023-05-10T04:14:23;7.80;99.90
17146;DHT22;8688;54.444;18.444;2023-05-10T04:16:51;7.80;99.90
17146;DHT22;8688;54.444;18.444;2023-05-10T04:19:29;7.80;99.90
17146;DHT22;8688;54.444;18.444;2023-05-10T04:21:59;7.90;99.90
17146;DHT22;8688;54.444;18.444;2023-05-10T04:24:26;7.90;99.90
17146;DHT22;8688;54.444;18.444;2023-05-10T04:26:54;8.00;99.90
17146;DHT22;8688;54.444;18.444;2023-05-10T04:29:22;8.00;99.90
17146;DHT22;8688;54.444;18.444;2023-05-10T04:31:50;8.10;99.90
17146;DHT22;8688;54.444;18.444;2023-05-10T04:34:20;8.20;99.90
17146;DHT22;8688;54.444;18.444;2023-05-10T04:36:47;8.20;99.90
17146;DHT22;8688;54.444;18.444;2023-05-10T04:39:15;8.30;99.90
17146;DHT22;8688;54.444;18.444;2023-05-10T04:41:42;8.30;99.90
17146;DHT22;8688;54.444;18.444;2023-05-10T04:44:09;8.40;99.90
17146;DHT22;8688;54.444;18.444;2023-05-10T04:46:37;8.40;99.90
17146;DHT22;8688;54.444;18.444;2023-05-10T04:49:06;8.50;99.90
17146;DHT22;8688;54.444;18.444;2023-05-10T04:51:33;8.50;99.90
17146;DHT22;8688;54.444;18.444;2023-05-10T04:54:00;8.60;99.90
17146;DHT22;8688;54.444;18.444;2023-05-10T04:56:28;8.60;99.90
17146;DHT22;8688;54.444;18.444;2023-05-10T04:58:58;8.70;99.90
17146;DHT22;8688;54.444;18.444;2023-05-10T05:01:28;8.70;99.90
17146;DHT22;8688;54.444;18.444;2023-05-10T05:03:56;8.80;99.90
17146;DHT22;8688;54.444;18.444;2023-05-10T05:06:25;8.80;99.90
17146;DHT22;8688;54.444;18.444;2023-05-10T05:08:53;8.90;99.90
17146;DHT22;8688;54.444;18.444;2023-05-10T05:11:20;8.90;99.90
17146;DHT22;8688;54.444;18.444;2023-05-10T05:13:48;9.00;99.90
17146;DHT22;8688;54.444;18.444;2023-05-10T05:16:15;9.10;99.90
17146;DHT22;8688;54.444;18.444;2023-05-10T05:18:42;9.10;99.90
17146;DHT22;8688;54.444;18.444;2023-05-10T05:21:19;9.20;99.90
17146;DHT22;8688;54.444;18.444;2023-05-10T05:23:48;9.20;99.90
17146;DHT22;8688;54.444;18.444;2023-05-10T05:26:16;9.20;99.90
17146;DHT22;8688;54.444;18.444;2023-05-10T05:28:43;9.30;99.90
17146;DHT22;8688;54.444;18.444;2023-05-10T05:31:10;9.40;99.90
17146;DHT22;8688;54.444;18.444;2023-05-10T05:33:38;9.50;99.90
17146;DHT22;8688;54.444;18.444;2023-05-10T05:36:06;9.50;99.90
17146;DHT22;8688;54.444;18.444;2023-05-10T05:38:33;9.50;99.90
17146;DHT22;8688;54.444;18.444;2023-05-10T05:41:02;9.60;99.90
17146;DHT22;8688;54.444;18.444;2023-05-10T05:43:29;9.60;99.90
17146;DHT22;8688;54.444;18.444;2023-05-10T05:45:57;9.70;99.90
17146;DHT22;8688;54.444;18.444;2023-05-10T05:48:24;9.70;99.90
17146;DHT22;8688;54.444;18.444;2023-05-10T05:50:54;9.80;99.90
17146;DHT22;8688;54.444;18.444;2023-05-10T05:53:22;9.90;99.90
17146;DHT22;8688;54.444;18.444;2023-05-10T05:55:53;10.00;99.90
17146;DHT22;8688;54.444;18.444;2023-05-10T05:58:23;10.00;99.90
17146;DHT22;8688;54.444;18.444;2023-05-10T06:00:50;10.10;99.90
17146;DHT22;8688;54.444;18.444;2023-05-10T06:03:18;10.20;99.90
17146;DHT22;8688;54.444;18.444;2023-05-10T06:05:46;10.20;99.90
17146;DHT22;8688;54.444;18.444;2023-05-10T06:08:15;10.30;99.90
17146;DHT22;8688;54.444;18.444;2023-05-10T06:10:43;10.40;99.90
17146;DHT22;8688;54.444;18.444;2023-05-10T06:13:11;10.50;99.90
17146;DHT22;8688;54.444;18.444;2023-05-10T06:15:40;10.60;99.90
17146;DHT22;8688;54.444;18.444;2023-05-10T06:18:07;10.60;99.90
17146;DHT22;8688;54.444;18.444;2023-05-10T06:20:34;10.70;99.90
17146;DHT22;8688;54.444;18.444;2023-05-10T06:23:02;10.80;99.90
17146;DHT22;8688;54.444;18.444;2023-05-10T06:25:29;10.90;99.90
17146;DHT22;8688;54.444;18.444;2023-05-10T06:27:56;10.90;99.90
17146;DHT22;8688;54.444;18.444;2023-05-10T06:30:25;11.00;99.90
17146;DHT22;8688;54.444;18.444;2023-05-10T06:32:55;11.00;99.90
17146;DHT22;8688;54.444;18.444;2023-05-10T06:35:22;11.00;99.90
17146;DHT22;8688;54.444;18.444;2023-05-10T06:37:50;11.10;99.70
17146;DHT22;8688;54.444;18.444;2023-05-10T06:40:18;11.20;99.50
17146;DHT22;8688;54.444;18.444;2023-05-10T06:42:46;11.30;99.40
17146;DHT22;8688;54.444;18.444;2023-05-10T06:45:13;11.40;99.80
17146;DHT22;8688;54.444;18.444;2023-05-10T06:47:41;11.40;99.00
17146;DHT22;8688;54.444;18.444;2023-05-10T06:50:11;11.50;99.10
17146;DHT22;8688;54.444;18.444;2023-05-10T06:52:38;11.60;99.70
17146;DHT22;8688;54.444;18.444;2023-05-10T06:55:07;11.70;98.80
17146;DHT22;8688;54.444;18.444;2023-05-10T06:57:34;11.70;98.70
17146;DHT22;8688;54.444;18.444;2023-05-10T07:00:02;11.80;98.50
17146;DHT22;8688;54.444;18.444;2023-05-10T07:02:31;11.90;98.60
17146;DHT22;8688;54.444;18.444;2023-05-10T07:04:58;11.90;98.20
17146;DHT22;8688;54.444;18.444;2023-05-10T07:07:27;12.00;98.70
17146;DHT22;8688;54.444;18.444;2023-05-10T07:09:54;12.10;98.30
17146;DHT22;8688;54.444;18.444;2023-05-10T07:12:23;12.10;98.60
17146;DHT22;8688;54.444;18.444;2023-05-10T07:14:50;12.30;98.30
17146;DHT22;8688;54.444;18.444;2023-05-10T07:17:18;12.30;98.20
17146;DHT22;8688;54.444;18.444;2023-05-10T07:19:49;12.40;97.40
17146;DHT22;8688;54.444;18.444;2023-05-10T07:22:16;12.50;98.20
17146;DHT22;8688;54.444;18.444;2023-05-10T07:24:45;12.60;97.60
17146;DHT22;8688;54.444;18.444;2023-05-10T07:27:13;12.60;97.10
17146;DHT22;8688;54.444;18.444;2023-05-10T07:29:40;12.70;96.50
17146;DHT22;8688;54.444;18.444;2023-05-10T07:32:08;12.80;96.70
17146;DHT22;8688;54.444;18.444;2023-05-10T07:34:35;12.90;97.70
17146;DHT22;8688;54.444;18.444;2023-05-10T07:37:02;13.00;97.20
17146;DHT22;8688;54.444;18.444;2023-05-10T07:39:30;13.10;96.80
17146;DHT22;8688;54.444;18.444;2023-05-10T07:41:59;13.20;96.90
17146;DHT22;8688;54.444;18.444;2023-05-10T07:44:26;13.30;95.90
17146;DHT22;8688;54.444;18.444;2023-05-10T07:46:53;13.40;95.00
17146;DHT22;8688;54.444;18.444;2023-05-10T07:49:21;13.40;94.50
17146;DHT22;8688;54.444;18.444;2023-05-10T07:51:49;13.50;92.40
17146;DHT22;8688;54.444;18.444;2023-05-10T07:54:17;13.60;92.50
17146;DHT22;8688;54.444;18.444;2023-05-10T07:56:44;13.70;92.80
17146;DHT22;8688;54.444;18.444;2023-05-10T07:59:17;13.80;93.30
17146;DHT22;8688;54.444;18.444;2023-05-10T08:01:45;13.90;93.00
17146;DHT22;8688;54.444;18.444;2023-05-10T08:04:12;14.00;92.30
17146;DHT22;8688;54.444;18.444;2023-05-10T08:06:40;14.10;92.80
17146;DHT22;8688;54.444;18.444;2023-05-10T08:09:08;14.20;92.40
17146;DHT22;8688;54.444;18.444;2023-05-10T08:11:36;14.30;91.30
17146;DHT22;8688;54.444;18.444;2023-05-10T08:14:04;14.40;90.30
17146;DHT22;8688;54.444;18.444;2023-05-10T08:16:33;14.40;86.00
17146;DHT22;8688;54.444;18.444;2023-05-10T08:19:00;14.40;85.20
17146;DHT22;8688;54.444;18.444;2023-05-10T08:21:27;14.40;86.20
17146;DHT22;8688;54.444;18.444;2023-05-10T08:23:55;14.40;85.40
17146;DHT22;8688;54.444;18.444;2023-05-10T08:26:22;14.60;86.30
17146;DHT22;8688;54.444;18.444;2023-05-10T08:28:50;14.70;86.50
17146;DHT22;8688;54.444;18.444;2023-05-10T08:31:17;14.80;90.30
17146;DHT22;8688;54.444;18.444;2023-05-10T08:33:46;14.90;89.90
17146;DHT22;8688;54.444;18.444;2023-05-10T08:36:13;14.90;86.80
17146;DHT22;8688;54.444;18.444;2023-05-10T08:38:45;14.90;86.80
17146;DHT22;8688;54.444;18.444;2023-05-10T08:41:13;15.00;88.20
17146;DHT22;8688;54.444;18.444;2023-05-10T08:43:41;15.10;84.00
17146;DHT22;8688;54.444;18.444;2023-05-10T08:46:14;15.20;83.20
17146;DHT22;8688;54.444;18.444;2023-05-10T08:48:43;15.20;84.70
17146;DHT22;8688;54.444;18.444;2023-05-10T08:51:14;15.20;81.90
17146;DHT22;8688;54.444;18.444;2023-05-10T08:53:42;15.20;83.80
17146;DHT22;8688;54.444;18.444;2023-05-10T08:56:10;15.30;85.80
17146;DHT22;8688;54.444;18.444;2023-05-10T08:58:38;15.30;82.90
17146;DHT22;8688;54.444;18.444;2023-05-10T09:01:06;15.30;85.50
17146;DHT22;8688;54.444;18.444;2023-05-10T09:03:33;15.30;82.70
17146;DHT22;8688;54.444;18.444;2023-05-10T09:06:01;15.30;84.30
17146;DHT22;8688;54.444;18.444;2023-05-10T09:08:29;15.50;83.50
17146;DHT22;8688;54.444;18.444;2023-05-10T09:10:57;15.50;81.60
17146;DHT22;8688;54.444;18.444;2023-05-10T09:13:25;15.50;79.80
17146;DHT22;8688;54.444;18.444;2023-05-10T09:15:53;15.50;80.90
17146;DHT22;8688;54.444;18.444;2023-05-10T09:18:20;15.60;81.50
17146;DHT22;8688;54.444;18.444;2023-05-10T09:20:48;15.70;82.80
17146;DHT22;8688;54.444;18.444;2023-05-10T09:23:16;15.70;83.50
17146;DHT22;8688;54.444;18.444;2023-05-10T09:25:44;15.80;82.60
17146;DHT22;8688;54.444;18.444;2023-05-10T09:28:12;15.80;83.80
17146;DHT22;8688;54.444;18.444;2023-05-10T09:30:39;15.80;82.00
17146;DHT22;8688;54.444;18.444;2023-05-10T09:33:08;15.90;79.90
17146;DHT22;8688;54.444;18.444;2023-05-10T09:35:36;16.00;80.50
17146;DHT22;8688;54.444;18.444;2023-05-10T09:38:05;16.10;78.40
17146;DHT22;8688;54.444;18.444;2023-05-10T09:40:33;16.20;76.90
17146;DHT22;8688;54.444;18.444;2023-05-10T09:43:03;16.20;80.20
17146;DHT22;8688;54.444;18.444;2023-05-10T09:45:32;16.20;77.20
17146;DHT22;8688;54.444;18.444;2023-05-10T09:48:01;16.30;78.10
17146;DHT22;8688;54.444;18.444;2023-05-10T09:50:29;16.40;75.20
17146;DHT22;8688;54.444;18.444;2023-05-10T09:52:58;16.40;77.30
17146;DHT22;8688;54.444;18.444;2023-05-10T09:55:38;16.50;76.50
17146;DHT22;8688;54.444;18.444;2023-05-10T09:58:07;16.70;76.20
17146;DHT22;8688;54.444;18.444;2023-05-10T10:00:37;16.60;73.30
17146;DHT22;8688;54.444;18.444;2023-05-10T10:03:05;16.60;74.80
17146;DHT22;8688;54.444;18.444;2023-05-10T10:05:36;16.60;75.20
17146;DHT22;8688;54.444;18.444;2023-05-10T10:08:04;16.70;78.10
17146;DHT22;8688;54.444;18.444;2023-05-10T10:10:33;16.80;71.80
17146;DHT22;8688;54.444;18.444;2023-05-10T10:13:01;16.80;77.20
17146;DHT22;8688;54.444;18.444;2023-05-10T10:15:30;17.00;75.20
17146;DHT22;8688;54.444;18.444;2023-05-10T10:17:58;16.90;72.30
17146;DHT22;8688;54.444;18.444;2023-05-10T10:20:26;16.90;74.50
17146;DHT22;8688;54.444;18.444;2023-05-10T10:22:54;17.00;76.30
17146;DHT22;8688;54.444;18.444;2023-05-10T10:25:22;17.00;72.60
17146;DHT22;8688;54.444;18.444;2023-05-10T10:28:02;17.00;72.10
17146;DHT22;8688;54.444;18.444;2023-05-10T10:30:39;17.10;74.60
17146;DHT22;8688;54.444;18.444;2023-05-10T10:33:40;17.10;71.50
17146;DHT22;8688;54.444;18.444;2023-05-10T10:36:12;17.20;73.00
17146;DHT22;8688;54.444;18.444;2023-05-10T10:38:59;17.20;75.70
17146;DHT22;8688;54.444;18.444;2023-05-10T10:41:33;17.30;74.00
17146;DHT22;8688;54.444;18.444;2023-05-10T10:44:25;17.10;68.30
17146;DHT22;8688;54.444;18.444;2023-05-10T10:47:02;17.10;74.70
17146;DHT22;8688;54.444;18.444;2023-05-10T10:49:32;17.10;72.20
17146;DHT22;8688;54.444;18.444;2023-05-10T10:52:33;17.20;71.60
17146;DHT22;8688;54.444;18.444;2023-05-10T10:55:02;17.30;73.20
17146;DHT22;8688;54.444;18.444;2023-05-10T10:57:32;17.50;71.40
17146;DHT22;8688;54.444;18.444;2023-05-10T11:00:24;17.50;68.40
17146;DHT22;8688;54.444;18.444;2023-05-10T11:02:56;17.50;69.40
17146;DHT22;8688;54.444;18.444;2023-05-10T11:05:45;17.50;69.40
17146;DHT22;8688;54.444;18.444;2023-05-10T11:08:18;17.50;68.60
17146;DHT22;8688;54.444;18.444;2023-05-10T11:11:01;17.60;66.60
17146;DHT22;8688;54.444;18.444;2023-05-10T11:13:30;17.70;68.10
17146;DHT22;8688;54.444;18.444;2023-05-10T11:15:58;17.80;66.00
17146;DHT22;8688;54.444;18.444;2023-05-10T11:18:30;17.90;68.80
17146;DHT22;8688;54.444;18.444;2023-05-10T11:21:00;18.00;69.40
17146;DHT22;8688;54.444;18.444;2023-05-10T11:23:32;18.10;67.80
17146;DHT22;8688;54.444;18.444;2023-05-10T11:26:00;18.10;65.50
17146;DHT22;8688;54.444;18.444;2023-05-10T11:28:28;18.20;69.80
17146;DHT22;8688;54.444;18.444;2023-05-10T11:30:55;18.20;67.30
17146;DHT22;8688;54.444;18.444;2023-05-10T11:33:23;18.20;63.10
17146;DHT22;8688;54.444;18.444;2023-05-10T11:35:52;18.20;63.50
17146;DHT22;8688;54.444;18.444;2023-05-10T11:38:19;18.20;66.60
17146;DHT22;8688;54.444;18.444;2023-05-10T11:40:47;18.30;68.00
17146;DHT22;8688;54.444;18.444;2023-05-10T11:43:19;18.50;64.80
17146;DHT22;8688;54.444;18.444;2023-05-10T11:45:50;18.60;67.50
17146;DHT22;8688;54.444;18.444;2023-05-10T11:48:18;18.60;65.80
17146;DHT22;8688;54.444;18.444;2023-05-10T11:50:52;18.70;62.80
17146;DHT22;8688;54.444;18.444;2023-05-10T11:53:22;18.70;67.50
17146;DHT22;8688;54.444;18.444;2023-05-10T11:55:50;18.70;63.90
17146;DHT22;8688;54.444;18.444;2023-05-10T11:58:18;18.80;65.50
17146;DHT22;8688;54.444;18.444;2023-05-10T12:00:47;18.90;66.70
17146;DHT22;8688;54.444;18.444;2023-05-10T12:03:15;19.00;64.20
17146;DHT22;8688;54.444;18.444;2023-05-10T12:05:42;19.00;62.80
17146;DHT22;8688;54.444;18.444;2023-05-10T12:08:15;19.10;61.80
17146;DHT22;8688;54.444;18.444;2023-05-10T12:10:46;19.10;61.60
17146;DHT22;8688;54.444;18.444;2023-05-10T12:13:14;19.20;63.20
17146;DHT22;8688;54.444;18.444;2023-05-10T12:15:42;19.40;64.40
17146;DHT22;8688;54.444;18.444;2023-05-10T12:18:10;19.50;63.60
17146;DHT22;8688;54.444;18.444;2023-05-10T12:20:39;19.50;65.70
17146;DHT22;8688;54.444;18.444;2023-05-10T12:23:09;19.60;61.40
17146;DHT22;8688;54.444;18.444;2023-05-10T12:25:38;19.60;63.40
17146;DHT22;8688;54.444;18.444;2023-05-10T12:28:07;19.50;61.80
17146;DHT22;8688;54.444;18.444;2023-05-10T12:30:36;19.50;62.00
17146;DHT22;8688;54.444;18.444;2023-05-10T12:33:09;19.40;59.10
17146;DHT22;8688;54.444;18.444;2023-05-10T12:35:45;19.40;61.10
17146;DHT22;8688;54.444;18.444;2023-05-10T12:38:29;19.50;60.20
17146;DHT22;8688;54.444;18.444;2023-05-10T12:41:00;19.60;58.10
17146;DHT22;8688;54.444;18.444;2023-05-10T12:43:28;19.80;59.70
17146;DHT22;8688;54.444;18.444;2023-05-10T12:45:56;20.00;60.00
17146;DHT22;8688;54.444;18.444;2023-05-10T12:48:23;20.20;60.60
17146;DHT22;8688;54.444;18.444;2023-05-10T12:50:50;20.10;60.00
17146;DHT22;8688;54.444;18.444;2023-05-10T12:53:18;19.90;58.20
17146;DHT22;8688;54.444;18.444;2023-05-10T12:55:45;20.10;60.40
17146;DHT22;8688;54.444;18.444;2023-05-10T12:58:14;20.30;56.90
17146;DHT22;8688;54.444;18.444;2023-05-10T13:00:42;20.40;57.90
17146;DHT22;8688;54.444;18.444;2023-05-10T13:03:10;20.50;57.40
17146;DHT22;8688;54.444;18.444;2023-05-10T13:05:37;20.60;56.30
17146;DHT22;8688;54.444;18.444;2023-05-10T13:08:05;20.70;56.00
17146;DHT22;8688;54.444;18.444;2023-05-10T13:10:32;20.70;58.30
17146;DHT22;8688;54.444;18.444;2023-05-10T13:13:00;20.60;58.10
17146;DHT22;8688;54.444;18.444;2023-05-10T13:15:29;20.70;56.30
17146;DHT22;8688;54.444;18.444;2023-05-10T13:17:56;20.80;54.20
17146;DHT22;8688;54.444;18.444;2023-05-10T13:20:24;20.90;57.00
17146;DHT22;8688;54.444;18.444;2023-05-10T13:22:52;20.90;55.70
17146;DHT22;8688;54.444;18.444;2023-05-10T13:25:19;21.00;55.80
17146;DHT22;8688;54.444;18.444;2023-05-10T13:27:47;21.10;56.60
17146;DHT22;8688;54.444;18.444;2023-05-10T13:30:14;21.30;57.40
17146;DHT22;8688;54.444;18.444;2023-05-10T13:32:43;21.30;55.60
17146;DHT22;8688;54.444;18.444;2023-05-10T13:35:14;21.20;54.80
17146;DHT22;8688;54.444;18.444;2023-05-10T13:37:50;21.20;53.60
17146;DHT22;8688;54.444;18.444;2023-05-10T13:40:27;21.10;54.40
17146;DHT22;8688;54.444;18.444;2023-05-10T13:43:04;21.20;52.90
17146;DHT22;8688;54.444;18.444;2023-05-10T13:45:32;21.30;54.20
17146;DHT22;8688;54.444;18.444;2023-05-10T13:48:01;21.30;53.30
17146;DHT22;8688;54.444;18.444;2023-05-10T13:50:28;21.30;52.40
17146;DHT22;8688;54.444;18.444;2023-05-10T13:52:56;21.10;53.40
17146;DHT22;8688;54.444;18.444;2023-05-10T13:55:23;21.00;52.20
17146;DHT22;8688;54.444;18.444;2023-05-10T13:57:51;21.20;53.80
17146;DHT22;8688;54.444;18.444;2023-05-10T14:00:19;21.40;54.40
17146;DHT22;8688;54.444;18.444;2023-05-10T14:02:54;21.60;52.40
17146;DHT22;8688;54.444;18.444;2023-05-10T14:05:23;21.30;53.00
17146;DHT22;8688;54.444;18.444;2023-05-10T14:07:52;21.40;52.80
17146;DHT22;8688;54.444;18.444;2023-05-10T14:10:20;21.30;53.50
17146;DHT22;8688;54.444;18.444;2023-05-10T14:12:47;21.60;52.50
17146;DHT22;8688;54.444;18.444;2023-05-10T14:15:14;21.70;52.40
17146;DHT22;8688;54.444;18.444;2023-05-10T14:17:42;21.50;51.50
17146;DHT22;8688;54.444;18.444;2023-05-10T14:20:11;21.50;50.80
17146;DHT22;8688;54.444;18.444;2023-05-10T14:22:40;21.70;53.20
17146;DHT22;8688;54.444;18.444;2023-05-10T14:25:08;21.80;51.50
17146;DHT22;8688;54.444;18.444;2023-05-10T14:27:36;21.70;51.70
17146;DHT22;8688;54.444;18.444;2023-05-10T14:30:04;21.70;53.10
17146;DHT22;8688;54.444;18.444;2023-05-10T14:32:32;21.70;51.00
17146;DHT22;8688;54.444;18.444;2023-05-10T14:35:02;21.50;52.00
17146;DHT22;8688;54.444;18.444;2023-05-10T14:37:30;21.60;51.00
17146;DHT22;8688;54.444;18.444;2023-05-10T14:39:59;21.60;51.20
17146;DHT22;8688;54.444;18.444;2023-05-10T14:42:27;21.60;51.00
17146;DHT22;8688;54.444;18.444;2023-05-10T14:44:54;21.60;50.50
17146;DHT22;8688;54.444;18.444;2023-05-10T15:37:09;19.90;64.80
17146;DHT22;8688;54.444;18.444;2023-05-10T15:39:36;20.20;60.60
17146;DHT22;8688;54.444;18.444;2023-05-10T15:42:04;20.80;59.30
17146;DHT22;8688;54.444;18.444;2023-05-10T15:44:31;21.00;55.90
17146;DHT22;8688;54.444;18.444;2023-05-10T15:47:00;21.00;53.80
17146;DHT22;8688;54.444;18.444;2023-05-10T15:49:28;21.20;54.80
17146;DHT22;8688;54.444;18.444;2023-05-10T15:51:56;21.30;54.60
17146;DHT22;8688;54.444;18.444;2023-05-10T15:54:25;21.30;51.90
17146;DHT22;8688;54.444;18.444;2023-05-10T15:56:53;21.40;55.00
17146;DHT22;8688;54.444;18.444;2023-05-10T15:59:21;21.60;56.70
17146;DHT22;8688;54.444;18.444;2023-05-10T16:01:48;21.50;55.30
17146;DHT22;8688;54.444;18.444;2023-05-10T16:04:16;21.30;53.50
17146;DHT22;8688;54.444;18.444;2023-05-10T16:06:44;21.20;55.70
17146;DHT22;8688;54.444;18.444;2023-05-10T16:09:11;21.20;56.00
17146;DHT22;8688;54.444;18.444;2023-05-10T16:11:41;21.30;56.40
17146;DHT22;8688;54.444;18.444;2023-05-10T16:14:09;21.40;53.20
17146;DHT22;8688;54.444;18.444;2023-05-10T16:16:36;21.30;53.70
17146;DHT22;8688;54.444;18.444;2023-05-10T16:19:04;21.20;52.00
17146;DHT22;8688;54.444;18.444;2023-05-10T16:21:32;21.00;52.40
17146;DHT22;8688;54.444;18.444;2023-05-10T16:23:59;21.20;55.20
17146;DHT22;8688;54.444;18.444;2023-05-10T16:26:27;21.30;51.00
17146;DHT22;8688;54.444;18.444;2023-05-10T16:28:56;21.10;51.60
17146;DHT22;8688;54.444;18.444;2023-05-10T16:31:25;20.90;52.50
17146;DHT22;8688;54.444;18.444;2023-05-10T16:33:52;20.90;50.40
17146;DHT22;8688;54.444;18.444;2023-05-10T16:36:20;20.80;51.00
17146;DHT22;8688;54.444;18.444;2023-05-10T16:38:47;20.60;51.10
17146;DHT22;8688;54.444;18.444;2023-05-10T16:41:15;20.60;51.40